»·PEaware :: N922MR KWJF-KSNA

N922MR :: KWJF-KSNA

FLIGHT INFORMATION

Flight Status: Arrived
Operator: Privately registered:
United States
More flights under this callsign
Pilot: Xavier R. (25586)
Aircraft: AERMACCHI WARRIOR
(F260)
More flights by this aircraft type
Origin: KWJF Gen Fox
United States
Destination: KSNA John Wayne-Orange Co
United States
More flights between these airports :: More routes between these airports
Route: + PMD V201 BERRI V459 SLI
File this flight plan on PilotEdge
Remarks:
Altitude:
(Current/Filed)
9,000ft
Speed:
(Current/Filed)
160kts
Departed: 29-Nov-19 05:36 PM
Arrived: 29-Nov-19 06:14 PM
Distance/Time
Traveled:
67nm/0:38
Distance/Time
To Go:
Arrived

Flight Plot

Page will automatically refresh every two minutes.

Flight plan parsing failed; only flown route is shown


Map Options




Map Legend


Flown Route
Filed Route
Departure Airport
Arrival Airport
Navaid (VOR, NDB)
Fix

Horizontal Profiles

Position Reports

Time Latitude Longitude Heading Altitude Ground
Speed
29-Nov-19 17:10 34.739602 -118.213554 250 2339ft 0kts
29-Nov-19 17:11 34.739602 -118.213554 250 2339ft 0kts
29-Nov-19 17:12 34.739602 -118.213554 250 2339ft 0kts
29-Nov-19 17:13 34.739602 -118.213554 250 2339ft 0kts
29-Nov-19 17:14 34.739602 -118.213554 250 2339ft 0kts
29-Nov-19 17:15 34.739602 -118.213554 250 2339ft 0kts
29-Nov-19 17:16 34.739602 -118.213554 250 2339ft 0kts
29-Nov-19 17:17 34.739602 -118.213554 250 2339ft 0kts
29-Nov-19 17:18 34.739602 -118.213554 250 2339ft 0kts
29-Nov-19 17:19 34.739602 -118.213554 250 2339ft 0kts
29-Nov-19 17:20 34.739602 -118.213554 250 2339ft 0kts
29-Nov-19 17:21 34.739602 -118.213554 250 2339ft 0kts
29-Nov-19 17:22 34.739602 -118.213554 250 2339ft 0kts
29-Nov-19 17:23 34.739602 -118.213554 250 2339ft 0kts
29-Nov-19 17:24 34.739592 -118.213621 286 2339ft 1kts
29-Nov-19 17:25 34.741060 -118.213534 336 2339ft 11kts
29-Nov-19 17:26 34.742462 -118.209760 73 2336ft 16kts
29-Nov-19 17:27 34.743354 -118.207061 320 2336ft 0kts
29-Nov-19 17:28 34.743354 -118.207061 320 2336ft 0kts
29-Nov-19 17:29 34.743354 -118.207061 320 2336ft 0kts
29-Nov-19 17:30 34.743354 -118.207061 320 2336ft 0kts
29-Nov-19 17:31 34.743354 -118.207061 320 2336ft 0kts
29-Nov-19 17:32 34.743354 -118.207061 320 2336ft 0kts
29-Nov-19 17:33 34.743354 -118.207061 320 2336ft 0kts
29-Nov-19 17:34 34.743354 -118.207061 320 2336ft 0kts
29-Nov-19 17:35 34.742009 -118.214993 253 2376ft 88kts
29-Nov-19 17:36 34.725694 -118.229357 107 3282ft 135kts
29-Nov-19 17:37 34.724667 -118.186402 112 4084ft 130kts
29-Nov-19 17:38 34.701156 -118.150353 135 4567ft 144kts
29-Nov-19 17:39 34.672321 -118.114499 136 5220ft 150kts
29-Nov-19 17:40 34.643177 -118.078176 136 5898ft 149kts
29-Nov-19 17:41 34.608062 -118.077376 206 6808ft 124kts
29-Nov-19 17:42 34.577324 -118.092421 211 7790ft 115kts
29-Nov-19 17:43 34.549333 -118.107151 213 8768ft 105kts
29-Nov-19 17:44 34.518201 -118.123920 211 8984ft 144kts
29-Nov-19 17:45 34.478911 -118.144685 210 8981ft 160kts
29-Nov-19 17:46 34.437835 -118.166413 210 8986ft 161kts
29-Nov-19 17:47 34.396748 -118.188152 209 8977ft 161kts
29-Nov-19 17:48 34.356031 -118.209666 209 8983ft 158kts
29-Nov-19 17:49 34.315836 -118.230886 209 8986ft 157kts
29-Nov-19 17:50 34.275901 -118.251946 209 8986ft 156kts
29-Nov-19 17:51 34.236236 -118.272842 208 8983ft 155kts
29-Nov-19 17:52 34.195318 -118.287906 175 8986ft 166kts
29-Nov-19 17:53 34.151271 -118.266584 162 8983ft 172kts
29-Nov-19 17:54 34.107861 -118.241564 162 8985ft 172kts
29-Nov-19 17:55 34.064507 -118.216519 162 8988ft 172kts
29-Nov-19 17:56 34.020698 -118.191276 161 8995ft 175kts
29-Nov-19 17:57 33.973129 -118.188685 192 8449ft 182kts
29-Nov-19 17:58 33.920864 -118.196096 192 7642ft 191kts
29-Nov-19 17:59 33.869999 -118.185043 141 6830ft 199kts
29-Nov-19 18:00 33.831145 -118.141587 141 6009ft 184kts
29-Nov-19 18:01 33.794166 -118.099569 141 5200ft 179kts
29-Nov-19 18:02 33.760011 -118.059555 140 4980ft 162kts
29-Nov-19 18:03 33.728604 -118.021866 140 4981ft 157kts
29-Nov-19 18:04 33.704454 -117.980042 90 4998ft 158kts
29-Nov-19 18:05 33.700757 -117.921374 82 3297ft 187kts
29-Nov-19 18:06 33.718910 -117.869180 48 2442ft 152kts
29-Nov-19 18:07 33.707148 -117.848167 205 1557ft 134kts
29-Nov-19 18:08 33.672843 -117.870545 206 296ft 144kts
29-Nov-19 18:09 33.656172 -117.898332 339 880ft 121kts
29-Nov-19 18:10 33.686738 -117.873449 37 609ft 126kts
29-Nov-19 18:11 33.701208 -117.848310 161 598ft 107kts
29-Nov-19 18:12 33.679907 -117.866118 206 65ft 77kts
29-Nov-19 18:13 33.669427 -117.871920 142 59ft 13kts
29-Nov-19 18:15 33.668984 -117.871367 145 59ft 10kts
29-Nov-19 18:16 33.665922 -117.872974 42 59ft 0kts
29-Nov-19 18:17 33.665922 -117.872974 42 59ft 0kts
29-Nov-19 18:18 33.665922 -117.872974 42 59ft 0kts

Navigation Log

Ident Type
Flight plan parsing failed, navigation log unavailable